sensor_id;sensor_type;location;lat;lon;timestamp;P1;durP1;ratioP1;P2;durP2;ratioP2
27899;SDS011;15243;50.726;7.080;2023-07-30T00:00:50;5.65;;;4.00;;
27899;SDS011;15243;50.726;7.080;2023-07-30T00:03:17;5.10;;;3.75;;
27899;SDS011;15243;50.726;7.080;2023-07-30T00:05:51;4.57;;;3.38;;
27899;SDS011;15243;50.726;7.080;2023-07-30T00:08:22;7.72;;;4.00;;
27899;SDS011;15243;50.726;7.080;2023-07-30T00:10:49;5.50;;;3.40;;
27899;SDS011;15243;50.726;7.080;2023-07-30T00:13:17;9.60;;;3.33;;
27899;SDS011;15243;50.726;7.080;2023-07-30T00:15:47;7.20;;;3.70;;
27899;SDS011;15243;50.726;7.080;2023-07-30T00:18:15;4.10;;;2.97;;
27899;SDS011;15243;50.726;7.080;2023-07-30T00:20:42;5.22;;;3.45;;
27899;SDS011;15243;50.726;7.080;2023-07-30T00:23:09;8.65;;;3.60;;
27899;SDS011;15243;50.726;7.080;2023-07-30T00:25:36;5.72;;;3.40;;
27899;SDS011;15243;50.726;7.080;2023-07-30T00:28:03;6.38;;;3.03;;
27899;SDS011;15243;50.726;7.080;2023-07-30T00:30:30;8.52;;;4.57;;
27899;SDS011;15243;50.726;7.080;2023-07-30T00:32:57;5.93;;;4.15;;
27899;SDS011;15243;50.726;7.080;2023-07-30T00:35:25;7.63;;;3.75;;
27899;SDS011;15243;50.726;7.080;2023-07-30T00:37:52;8.38;;;3.60;;
27899;SDS011;15243;50.726;7.080;2023-07-30T00:40:19;5.63;;;3.58;;
27899;SDS011;15243;50.726;7.080;2023-07-30T00:42:46;5.13;;;3.60;;
27899;SDS011;15243;50.726;7.080;2023-07-30T00:45:13;6.93;;;3.50;;
27899;SDS011;15243;50.726;7.080;2023-07-30T00:47:40;12.05;;;4.07;;
27899;SDS011;15243;50.726;7.080;2023-07-30T00:50:07;6.53;;;3.53;;
27899;SDS011;15243;50.726;7.080;2023-07-30T00:52:36;5.40;;;4.10;;
27899;SDS011;15243;50.726;7.080;2023-07-30T00:55:03;5.68;;;3.45;;
27899;SDS011;15243;50.726;7.080;2023-07-30T00:57:33;9.23;;;3.40;;
27899;SDS011;15243;50.726;7.080;2023-07-30T01:00:02;5.75;;;3.50;;
27899;SDS011;15243;50.726;7.080;2023-07-30T01:02:35;9.02;;;3.72;;
27899;SDS011;15243;50.726;7.080;2023-07-30T01:05:03;7.85;;;3.55;;
27899;SDS011;15243;50.726;7.080;2023-07-30T01:07:31;4.65;;;3.45;;
27899;SDS011;15243;50.726;7.080;2023-07-30T01:09:59;5.95;;;3.47;;
27899;SDS011;15243;50.726;7.080;2023-07-30T01:12:27;7.30;;;3.58;;
27899;SDS011;15243;50.726;7.080;2023-07-30T01:14:57;5.25;;;3.53;;
27899;SDS011;15243;50.726;7.080;2023-07-30T01:17:25;7.30;;;3.60;;
27899;SDS011;15243;50.726;7.080;2023-07-30T01:19:53;10.75;;;3.35;;
27899;SDS011;15243;50.726;7.080;2023-07-30T01:22:23;4.85;;;3.42;;
27899;SDS011;15243;50.726;7.080;2023-07-30T01:24:50;6.75;;;3.53;;
27899;SDS011;15243;50.726;7.080;2023-07-30T01:27:31;6.68;;;3.30;;
27899;SDS011;15243;50.726;7.080;2023-07-30T01:30:08;5.13;;;3.10;;
27899;SDS011;15243;50.726;7.080;2023-07-30T01:35:04;4.45;;;3.10;;
27899;SDS011;15243;50.726;7.080;2023-07-30T01:37:34;5.60;;;3.33;;
27899;SDS011;15243;50.726;7.080;2023-07-30T01:40:05;5.15;;;3.25;;
27899;SDS011;15243;50.726;7.080;2023-07-30T01:42:33;6.40;;;3.65;;
27899;SDS011;15243;50.726;7.080;2023-07-30T01:45:00;5.97;;;3.42;;
27899;SDS011;15243;50.726;7.080;2023-07-30T01:47:27;6.53;;;3.55;;
27899;SDS011;15243;50.726;7.080;2023-07-30T01:49:55;3.53;;;3.05;;
27899;SDS011;15243;50.726;7.080;2023-07-30T01:52:22;4.97;;;3.40;;
27899;SDS011;15243;50.726;7.080;2023-07-30T01:54:49;7.90;;;3.13;;
27899;SDS011;15243;50.726;7.080;2023-07-30T01:57:16;6.82;;;3.40;;
27899;SDS011;15243;50.726;7.080;2023-07-30T01:59:42;6.93;;;2.85;;
27899;SDS011;15243;50.726;7.080;2023-07-30T02:02:10;4.45;;;3.20;;
27899;SDS011;15243;50.726;7.080;2023-07-30T02:04:37;9.48;;;3.50;;
27899;SDS011;15243;50.726;7.080;2023-07-30T02:07:03;5.97;;;3.00;;
27899;SDS011;15243;50.726;7.080;2023-07-30T02:09:31;5.43;;;3.35;;
27899;SDS011;15243;50.726;7.080;2023-07-30T02:11:58;7.05;;;3.17;;
27899;SDS011;15243;50.726;7.080;2023-07-30T02:14:25;8.77;;;3.35;;
27899;SDS011;15243;50.726;7.080;2023-07-30T02:16:52;7.05;;;3.65;;
27899;SDS011;15243;50.726;7.080;2023-07-30T02:19:19;5.78;;;3.13;;
27899;SDS011;15243;50.726;7.080;2023-07-30T02:21:46;6.60;;;3.05;;
27899;SDS011;15243;50.726;7.080;2023-07-30T02:24:13;3.85;;;2.35;;
27899;SDS011;15243;50.726;7.080;2023-07-30T02:26:40;5.70;;;3.30;;
27899;SDS011;15243;50.726;7.080;2023-07-30T02:29:07;6.35;;;2.65;;
27899;SDS011;15243;50.726;7.080;2023-07-30T02:31:34;6.18;;;2.55;;
27899;SDS011;15243;50.726;7.080;2023-07-30T02:34:02;5.32;;;2.88;;
27899;SDS011;15243;50.726;7.080;2023-07-30T02:36:29;7.38;;;2.33;;
27899;SDS011;15243;50.726;7.080;2023-07-30T02:38:56;8.07;;;2.95;;
27899;SDS011;15243;50.726;7.080;2023-07-30T02:41:23;10.65;;;2.72;;
27899;SDS011;15243;50.726;7.080;2023-07-30T02:43:50;6.93;;;2.60;;
27899;SDS011;15243;50.726;7.080;2023-07-30T02:46:17;6.13;;;2.80;;
27899;SDS011;15243;50.726;7.080;2023-07-30T02:48:44;4.75;;;2.38;;
27899;SDS011;15243;50.726;7.080;2023-07-30T02:51:11;4.38;;;2.65;;
27899;SDS011;15243;50.726;7.080;2023-07-30T02:53:38;6.57;;;3.00;;
27899;SDS011;15243;50.726;7.080;2023-07-30T02:56:05;13.57;;;2.72;;
27899;SDS011;15243;50.726;7.080;2023-07-30T02:58:32;7.93;;;2.42;;
27899;SDS011;15243;50.726;7.080;2023-07-30T03:01:08;5.78;;;2.60;;
27899;SDS011;15243;50.726;7.080;2023-07-30T03:03:38;8.95;;;2.88;;
27899;SDS011;15243;50.726;7.080;2023-07-30T03:06:05;6.38;;;3.08;;
27899;SDS011;15243;50.726;7.080;2023-07-30T03:08:33;6.65;;;2.92;;
27899;SDS011;15243;50.726;7.080;2023-07-30T03:11:02;10.35;;;3.25;;
27899;SDS011;15243;50.726;7.080;2023-07-30T03:13:29;7.25;;;2.50;;
27899;SDS011;15243;50.726;7.080;2023-07-30T03:15:56;5.50;;;2.60;;
27899;SDS011;15243;50.726;7.080;2023-07-30T03:18:23;6.18;;;2.67;;
27899;SDS011;15243;50.726;7.080;2023-07-30T03:20:50;5.07;;;2.50;;
27899;SDS011;15243;50.726;7.080;2023-07-30T03:23:17;7.13;;;2.28;;
27899;SDS011;15243;50.726;7.080;2023-07-30T03:25:44;7.03;;;2.83;;
27899;SDS011;15243;50.726;7.080;2023-07-30T03:28:14;6.78;;;1.95;;
27899;SDS011;15243;50.726;7.080;2023-07-30T03:30:41;6.97;;;2.70;;
27899;SDS011;15243;50.726;7.080;2023-07-30T03:33:08;5.57;;;2.40;;
27899;SDS011;15243;50.726;7.080;2023-07-30T03:35:35;11.68;;;2.90;;
27899;SDS011;15243;50.726;7.080;2023-07-30T03:38:02;11.43;;;2.60;;
27899;SDS011;15243;50.726;7.080;2023-07-30T03:40:30;14.70;;;2.67;;
27899;SDS011;15243;50.726;7.080;2023-07-30T03:42:57;7.00;;;2.58;;
27899;SDS011;15243;50.726;7.080;2023-07-30T03:45:24;7.03;;;2.80;;
27899;SDS011;15243;50.726;7.080;2023-07-30T03:47:51;15.18;;;3.03;;
27899;SDS011;15243;50.726;7.080;2023-07-30T03:50:19;4.90;;;2.20;;
27899;SDS011;15243;50.726;7.080;2023-07-30T03:52:46;8.93;;;2.53;;
27899;SDS011;15243;50.726;7.080;2023-07-30T03:55:13;6.72;;;2.80;;
27899;SDS011;15243;50.726;7.080;2023-07-30T03:57:40;6.68;;;2.63;;
27899;SDS011;15243;50.726;7.080;2023-07-30T04:00:07;4.30;;;2.33;;
27899;SDS011;15243;50.726;7.080;2023-07-30T04:02:34;12.80;;;2.60;;
27899;SDS011;15243;50.726;7.080;2023-07-30T04:05:01;6.22;;;2.35;;
27899;SDS011;15243;50.726;7.080;2023-07-30T04:07:28;3.38;;;2.33;;
27899;SDS011;15243;50.726;7.080;2023-07-30T04:09:56;7.38;;;2.30;;
27899;SDS011;15243;50.726;7.080;2023-07-30T04:12:23;5.43;;;2.47;;
27899;SDS011;15243;50.726;7.080;2023-07-30T04:14:50;5.57;;;2.33;;
27899;SDS011;15243;50.726;7.080;2023-07-30T04:17:17;5.53;;;2.53;;
27899;SDS011;15243;50.726;7.080;2023-07-30T04:19:44;4.95;;;2.40;;
27899;SDS011;15243;50.726;7.080;2023-07-30T04:22:11;9.70;;;2.60;;
27899;SDS011;15243;50.726;7.080;2023-07-30T04:24:38;8.98;;;2.53;;
27899;SDS011;15243;50.726;7.080;2023-07-30T04:27:05;4.60;;;2.78;;
27899;SDS011;15243;50.726;7.080;2023-07-30T04:29:32;5.70;;;2.13;;
27899;SDS011;15243;50.726;7.080;2023-07-30T04:31:59;7.20;;;2.65;;
27899;SDS011;15243;50.726;7.080;2023-07-30T04:34:26;5.70;;;2.60;;
27899;SDS011;15243;50.726;7.080;2023-07-30T04:36:53;5.90;;;2.50;;
27899;SDS011;15243;50.726;7.080;2023-07-30T04:39:20;11.65;;;3.35;;
27899;SDS011;15243;50.726;7.080;2023-07-30T04:41:47;3.97;;;2.50;;
27899;SDS011;15243;50.726;7.080;2023-07-30T04:44:14;5.75;;;2.90;;
27899;SDS011;15243;50.726;7.080;2023-07-30T04:46:41;7.07;;;2.88;;
27899;SDS011;15243;50.726;7.080;2023-07-30T04:49:08;9.40;;;2.60;;
27899;SDS011;15243;50.726;7.080;2023-07-30T04:51:35;8.70;;;2.30;;
27899;SDS011;15243;50.726;7.080;2023-07-30T04:54:03;6.85;;;2.28;;
27899;SDS011;15243;50.726;7.080;2023-07-30T04:56:30;8.18;;;2.35;;
27899;SDS011;15243;50.726;7.080;2023-07-30T04:58:57;9.18;;;2.55;;
27899;SDS011;15243;50.726;7.080;2023-07-30T05:01:24;5.78;;;2.35;;
27899;SDS011;15243;50.726;7.080;2023-07-30T05:03:52;6.90;;;2.50;;
27899;SDS011;15243;50.726;7.080;2023-07-30T05:06:19;6.78;;;2.25;;
27899;SDS011;15243;50.726;7.080;2023-07-30T05:08:47;7.13;;;1.98;;
27899;SDS011;15243;50.726;7.080;2023-07-30T05:11:14;7.80;;;2.30;;
27899;SDS011;15243;50.726;7.080;2023-07-30T05:13:40;8.18;;;2.20;;
27899;SDS011;15243;50.726;7.080;2023-07-30T05:16:07;9.23;;;1.83;;
27899;SDS011;15243;50.726;7.080;2023-07-30T05:18:35;8.52;;;2.25;;
27899;SDS011;15243;50.726;7.080;2023-07-30T05:21:02;10.63;;;2.55;;
27899;SDS011;15243;50.726;7.080;2023-07-30T05:23:29;8.05;;;2.47;;
27899;SDS011;15243;50.726;7.080;2023-07-30T05:25:55;5.25;;;2.00;;
27899;SDS011;15243;50.726;7.080;2023-07-30T05:28:22;10.77;;;2.35;;
27899;SDS011;15243;50.726;7.080;2023-07-30T05:30:49;8.43;;;2.15;;
27899;SDS011;15243;50.726;7.080;2023-07-30T05:33:16;9.32;;;2.55;;
27899;SDS011;15243;50.726;7.080;2023-07-30T05:35:43;9.20;;;2.33;;
27899;SDS011;15243;50.726;7.080;2023-07-30T05:38:12;7.75;;;2.55;;
27899;SDS011;15243;50.726;7.080;2023-07-30T05:40:39;9.85;;;2.50;;
27899;SDS011;15243;50.726;7.080;2023-07-30T05:43:07;7.40;;;2.50;;
27899;SDS011;15243;50.726;7.080;2023-07-30T05:45:34;9.63;;;2.67;;
27899;SDS011;15243;50.726;7.080;2023-07-30T05:48:01;10.77;;;2.53;;
27899;SDS011;15243;50.726;7.080;2023-07-30T05:50:29;8.77;;;2.10;;
27899;SDS011;15243;50.726;7.080;2023-07-30T05:52:55;11.60;;;2.53;;
27899;SDS011;15243;50.726;7.080;2023-07-30T05:55:22;10.80;;;2.42;;
27899;SDS011;15243;50.726;7.080;2023-07-30T05:57:49;12.00;;;2.92;;
27899;SDS011;15243;50.726;7.080;2023-07-30T06:00:16;9.57;;;2.60;;
27899;SDS011;15243;50.726;7.080;2023-07-30T06:02:43;12.30;;;2.42;;
27899;SDS011;15243;50.726;7.080;2023-07-30T06:05:10;8.00;;;2.50;;
27899;SDS011;15243;50.726;7.080;2023-07-30T06:07:37;14.55;;;2.83;;
27899;SDS011;15243;50.726;7.080;2023-07-30T06:10:04;7.13;;;2.40;;
27899;SDS011;15243;50.726;7.080;2023-07-30T06:12:32;11.85;;;2.88;;
27899;SDS011;15243;50.726;7.080;2023-07-30T06:14:59;9.80;;;2.67;;
27899;SDS011;15243;50.726;7.080;2023-07-30T06:17:26;9.38;;;2.60;;
27899;SDS011;15243;50.726;7.080;2023-07-30T06:19:53;9.15;;;2.42;;
27899;SDS011;15243;50.726;7.080;2023-07-30T06:22:20;10.00;;;2.90;;
27899;SDS011;15243;50.726;7.080;2023-07-30T06:24:48;10.10;;;3.03;;
27899;SDS011;15243;50.726;7.080;2023-07-30T06:27:15;9.18;;;2.42;;
27899;SDS011;15243;50.726;7.080;2023-07-30T06:29:42;10.45;;;2.60;;
27899;SDS011;15243;50.726;7.080;2023-07-30T06:32:09;12.68;;;3.25;;
27899;SDS011;15243;50.726;7.080;2023-07-30T06:34:36;10.48;;;2.47;;
27899;SDS011;15243;50.726;7.080;2023-07-30T06:37:03;9.57;;;2.58;;
27899;SDS011;15243;50.726;7.080;2023-07-30T06:39:30;9.00;;;2.75;;
27899;SDS011;15243;50.726;7.080;2023-07-30T06:41:57;6.97;;;2.40;;
27899;SDS011;15243;50.726;7.080;2023-07-30T06:44:24;9.02;;;2.33;;
27899;SDS011;15243;50.726;7.080;2023-07-30T06:46:51;8.48;;;2.78;;
27899;SDS011;15243;50.726;7.080;2023-07-30T06:49:18;9.02;;;2.70;;
27899;SDS011;15243;50.726;7.080;2023-07-30T06:51:45;10.82;;;2.70;;
27899;SDS011;15243;50.726;7.080;2023-07-30T06:54:13;12.20;;;3.42;;
27899;SDS011;15243;50.726;7.080;2023-07-30T06:56:40;5.60;;;2.30;;
27899;SDS011;15243;50.726;7.080;2023-07-30T06:59:07;12.13;;;2.97;;
27899;SDS011;15243;50.726;7.080;2023-07-30T07:01:34;14.13;;;2.88;;
27899;SDS011;15243;50.726;7.080;2023-07-30T07:04:02;7.85;;;2.58;;
27899;SDS011;15243;50.726;7.080;2023-07-30T07:06:29;9.43;;;2.85;;
27899;SDS011;15243;50.726;7.080;2023-07-30T07:08:56;11.15;;;2.63;;
27899;SDS011;15243;50.726;7.080;2023-07-30T07:11:24;8.05;;;2.78;;
27899;SDS011;15243;50.726;7.080;2023-07-30T07:13:51;7.55;;;2.88;;
27899;SDS011;15243;50.726;7.080;2023-07-30T07:16:18;9.75;;;3.00;;
27899;SDS011;15243;50.726;7.080;2023-07-30T07:18:45;9.10;;;3.13;;
27899;SDS011;15243;50.726;7.080;2023-07-30T07:21:13;13.93;;;2.85;;
27899;SDS011;15243;50.726;7.080;2023-07-30T07:23:40;11.48;;;2.92;;
27899;SDS011;15243;50.726;7.080;2023-07-30T07:26:07;13.52;;;3.10;;
27899;SDS011;15243;50.726;7.080;2023-07-30T07:28:34;8.52;;;2.63;;
27899;SDS011;15243;50.726;7.080;2023-07-30T07:31:02;12.00;;;3.22;;
27899;SDS011;15243;50.726;7.080;2023-07-30T07:33:29;7.13;;;2.67;;
27899;SDS011;15243;50.726;7.080;2023-07-30T07:36:03;8.70;;;2.50;;
27899;SDS011;15243;50.726;7.080;2023-07-30T07:38:32;6.07;;;2.67;;
27899;SDS011;15243;50.726;7.080;2023-07-30T07:40:59;8.77;;;2.97;;
27899;SDS011;15243;50.726;7.080;2023-07-30T07:43:27;10.70;;;2.78;;
27899;SDS011;15243;50.726;7.080;2023-07-30T07:45:54;11.82;;;3.22;;
27899;SDS011;15243;50.726;7.080;2023-07-30T07:48:22;11.02;;;3.10;;
27899;SDS011;15243;50.726;7.080;2023-07-30T07:50:49;7.72;;;2.95;;
27899;SDS011;15243;50.726;7.080;2023-07-30T07:53:16;8.60;;;2.72;;
27899;SDS011;15243;50.726;7.080;2023-07-30T07:55:43;8.80;;;2.65;;
27899;SDS011;15243;50.726;7.080;2023-07-30T07:58:10;17.95;;;3.05;;
27899;SDS011;15243;50.726;7.080;2023-07-30T08:00:37;9.93;;;2.60;;
27899;SDS011;15243;50.726;7.080;2023-07-30T08:03:04;9.13;;;2.35;;
27899;SDS011;15243;50.726;7.080;2023-07-30T08:05:31;11.93;;;2.35;;
27899;SDS011;15243;50.726;7.080;2023-07-30T08:07:58;9.30;;;2.53;;
27899;SDS011;15243;50.726;7.080;2023-07-30T08:10:25;8.35;;;2.70;;
27899;SDS011;15243;50.726;7.080;2023-07-30T08:12:52;7.72;;;2.72;;
27899;SDS011;15243;50.726;7.080;2023-07-30T08:15:19;7.07;;;2.40;;
27899;SDS011;15243;50.726;7.080;2023-07-30T08:17:46;6.90;;;2.40;;
27899;SDS011;15243;50.726;7.080;2023-07-30T08:20:14;7.03;;;2.58;;
27899;SDS011;15243;50.726;7.080;2023-07-30T08:22:41;9.98;;;2.50;;
27899;SDS011;15243;50.726;7.080;2023-07-30T08:25:08;9.07;;;2.90;;
27899;SDS011;15243;50.726;7.080;2023-07-30T08:27:35;7.13;;;2.63;;
27899;SDS011;15243;50.726;7.080;2023-07-30T08:30:02;9.55;;;2.25;;
27899;SDS011;15243;50.726;7.080;2023-07-30T08:32:32;10.60;;;2.40;;
27899;SDS011;15243;50.726;7.080;2023-07-30T08:35:06;9.27;;;2.20;;
27899;SDS011;15243;50.726;7.080;2023-07-30T08:37:33;8.40;;;2.05;;
27899;SDS011;15243;50.726;7.080;2023-07-30T08:40:00;8.02;;;1.80;;
27899;SDS011;15243;50.726;7.080;2023-07-30T08:42:27;9.57;;;2.13;;
27899;SDS011;15243;50.726;7.080;2023-07-30T08:44:55;6.75;;;1.98;;
27899;SDS011;15243;50.726;7.080;2023-07-30T08:47:22;15.23;;;2.58;;
27899;SDS011;15243;50.726;7.080;2023-07-30T08:49:49;14.05;;;2.33;;
27899;SDS011;15243;50.726;7.080;2023-07-30T08:52:16;8.68;;;2.05;;
27899;SDS011;15243;50.726;7.080;2023-07-30T08:54:44;8.93;;;2.15;;
27899;SDS011;15243;50.726;7.080;2023-07-30T08:57:12;7.30;;;2.08;;
27899;SDS011;15243;50.726;7.080;2023-07-30T08:59:42;10.27;;;2.75;;
27899;SDS011;15243;50.726;7.080;2023-07-30T09:02:18;9.05;;;2.33;;
27899;SDS011;15243;50.726;7.080;2023-07-30T09:04:53;14.30;;;2.35;;
27899;SDS011;15243;50.726;7.080;2023-07-30T09:07:24;9.20;;;2.30;;
27899;SDS011;15243;50.726;7.080;2023-07-30T09:09:52;10.13;;;2.70;;
27899;SDS011;15243;50.726;7.080;2023-07-30T09:12:19;13.90;;;2.38;;
27899;SDS011;15243;50.726;7.080;2023-07-30T09:14:46;10.88;;;2.28;;
27899;SDS011;15243;50.726;7.080;2023-07-30T09:17:17;11.73;;;2.92;;
27899;SDS011;15243;50.726;7.080;2023-07-30T09:19:45;7.30;;;2.38;;
27899;SDS011;15243;50.726;7.080;2023-07-30T09:22:19;15.20;;;2.67;;
27899;SDS011;15243;50.726;7.080;2023-07-30T09:27:25;12.88;;;2.08;;
27899;SDS011;15243;50.726;7.080;2023-07-30T09:29:53;13.63;;;2.47;;
27899;SDS011;15243;50.726;7.080;2023-07-30T09:32:27;15.18;;;2.35;;
27899;SDS011;15243;50.726;7.080;2023-07-30T09:34:55;10.77;;;2.10;;
27899;SDS011;15243;50.726;7.080;2023-07-30T09:37:35;9.02;;;1.95;;
27899;SDS011;15243;50.726;7.080;2023-07-30T09:40:08;11.70;;;2.40;;
27899;SDS011;15243;50.726;7.080;2023-07-30T09:42:37;11.77;;;2.13;;
27899;SDS011;15243;50.726;7.080;2023-07-30T09:45:06;12.00;;;2.20;;
27899;SDS011;15243;50.726;7.080;2023-07-30T09:47:38;9.77;;;2.08;;
27899;SDS011;15243;50.726;7.080;2023-07-30T09:50:05;7.78;;;1.95;;
27899;SDS011;15243;50.726;7.080;2023-07-30T09:52:33;14.88;;;2.50;;
27899;SDS011;15243;50.726;7.080;2023-07-30T09:55:00;8.63;;;1.50;;
27899;SDS011;15243;50.726;7.080;2023-07-30T09:57:28;10.65;;;1.92;;
27899;SDS011;15243;50.726;7.080;2023-07-30T09:59:56;11.57;;;1.90;;
27899;SDS011;15243;50.726;7.080;2023-07-30T10:02:25;12.13;;;2.53;;
27899;SDS011;15243;50.726;7.080;2023-07-30T10:04:54;13.15;;;2.15;;
27899;SDS011;15243;50.726;7.080;2023-07-30T10:07:23;10.52;;;2.30;;
27899;SDS011;15243;50.726;7.080;2023-07-30T10:09:51;6.25;;;1.85;;
27899;SDS011;15243;50.726;7.080;2023-07-30T10:12:22;11.95;;;2.40;;
27899;SDS011;15243;50.726;7.080;2023-07-30T10:15:00;10.95;;;1.92;;
27899;SDS011;15243;50.726;7.080;2023-07-30T10:17:28;8.10;;;1.80;;
27899;SDS011;15243;50.726;7.080;2023-07-30T10:19:58;11.00;;;1.58;;
27899;SDS011;15243;50.726;7.080;2023-07-30T10:22:47;4.90;;;1.40;;
27899;SDS011;15243;50.726;7.080;2023-07-30T10:25:17;8.75;;;1.42;;
27899;SDS011;15243;50.726;7.080;2023-07-30T10:27:49;10.18;;;1.73;;
27899;SDS011;15243;50.726;7.080;2023-07-30T10:30:20;8.75;;;1.58;;
27899;SDS011;15243;50.726;7.080;2023-07-30T10:35:34;8.93;;;1.85;;
27899;SDS011;15243;50.726;7.080;2023-07-30T10:38:19;11.52;;;1.92;;
27899;SDS011;15243;50.726;7.080;2023-07-30T10:41:01;8.18;;;1.73;;
27899;SDS011;15243;50.726;7.080;2023-07-30T10:43:41;8.23;;;2.00;;
27899;SDS011;15243;50.726;7.080;2023-07-30T10:46:10;5.85;;;1.75;;
27899;SDS011;15243;50.726;7.080;2023-07-30T10:48:39;11.00;;;1.70;;
27899;SDS011;15243;50.726;7.080;2023-07-30T10:51:09;7.63;;;1.70;;
27899;SDS011;15243;50.726;7.080;2023-07-30T10:53:40;10.38;;;1.75;;
27899;SDS011;15243;50.726;7.080;2023-07-30T10:56:12;6.93;;;1.92;;
27899;SDS011;15243;50.726;7.080;2023-07-30T10:58:39;8.10;;;1.83;;
27899;SDS011;15243;50.726;7.080;2023-07-30T11:01:07;7.50;;;1.60;;
27899;SDS011;15243;50.726;7.080;2023-07-30T11:03:35;7.45;;;1.38;;
27899;SDS011;15243;50.726;7.080;2023-07-30T11:06:05;7.63;;;1.85;;
27899;SDS011;15243;50.726;7.080;2023-07-30T11:11:01;10.18;;;2.15;;
27899;SDS011;15243;50.726;7.080;2023-07-30T11:13:29;10.63;;;1.52;;
27899;SDS011;15243;50.726;7.080;2023-07-30T11:15:57;8.90;;;1.58;;
27899;SDS011;15243;50.726;7.080;2023-07-30T11:18:24;8.00;;;1.67;;
27899;SDS011;15243;50.726;7.080;2023-07-30T11:20:51;6.72;;;1.50;;
27899;SDS011;15243;50.726;7.080;2023-07-30T11:23:20;6.30;;;1.55;;
27899;SDS011;15243;50.726;7.080;2023-07-30T11:25:49;5.78;;;1.35;;
27899;SDS011;15243;50.726;7.080;2023-07-30T11:31:07;5.57;;;1.40;;
27899;SDS011;15243;50.726;7.080;2023-07-30T11:33:40;3.28;;;1.00;;
27899;SDS011;15243;50.726;7.080;2023-07-30T11:36:14;6.85;;;1.85;;
27899;SDS011;15243;50.726;7.080;2023-07-30T11:38:43;4.80;;;1.20;;
27899;SDS011;15243;50.726;7.080;2023-07-30T11:41:11;6.28;;;1.45;;
27899;SDS011;15243;50.726;7.080;2023-07-30T11:43:40;6.40;;;1.35;;
27899;SDS011;15243;50.726;7.080;2023-07-30T11:46:10;5.82;;;1.20;;
27899;SDS011;15243;50.726;7.080;2023-07-30T11:48:42;7.40;;;1.70;;
27899;SDS011;15243;50.726;7.080;2023-07-30T11:51:28;6.68;;;1.00;;
27899;SDS011;15243;50.726;7.080;2023-07-30T11:53:56;4.32;;;1.25;;
27899;SDS011;15243;50.726;7.080;2023-07-30T11:59:01;3.10;;;0.85;;
27899;SDS011;15243;50.726;7.080;2023-07-30T12:01:32;7.88;;;1.20;;
27899;SDS011;15243;50.726;7.080;2023-07-30T12:04:02;6.70;;;1.85;;
27899;SDS011;15243;50.726;7.080;2023-07-30T12:06:47;3.17;;;1.02;;
27899;SDS011;15243;50.726;7.080;2023-07-30T12:09:23;4.13;;;1.00;;
27899;SDS011;15243;50.726;7.080;2023-07-30T12:11:56;8.77;;;1.42;;
27899;SDS011;15243;50.726;7.080;2023-07-30T12:14:24;2.28;;;0.75;;
27899;SDS011;15243;50.726;7.080;2023-07-30T12:16:57;5.65;;;0.88;;
27899;SDS011;15243;50.726;7.080;2023-07-30T12:19:25;4.50;;;1.10;;
27899;SDS011;15243;50.726;7.080;2023-07-30T12:21:52;5.25;;;1.42;;
27899;SDS011;15243;50.726;7.080;2023-07-30T12:24:18;4.25;;;1.20;;
27899;SDS011;15243;50.726;7.080;2023-07-30T12:26:46;3.83;;;1.25;;
27899;SDS011;15243;50.726;7.080;2023-07-30T12:29:14;6.53;;;1.30;;
27899;SDS011;15243;50.726;7.080;2023-07-30T12:31:40;4.28;;;1.40;;
27899;SDS011;15243;50.726;7.080;2023-07-30T12:34:08;4.40;;;1.05;;
27899;SDS011;15243;50.726;7.080;2023-07-30T12:36:35;9.27;;;1.48;;
27899;SDS011;15243;50.726;7.080;2023-07-30T12:39:02;6.15;;;1.40;;
27899;SDS011;15243;50.726;7.080;2023-07-30T12:41:29;6.72;;;1.88;;
27899;SDS011;15243;50.726;7.080;2023-07-30T12:43:56;9.52;;;1.48;;
27899;SDS011;15243;50.726;7.080;2023-07-30T12:46:23;6.03;;;1.40;;
27899;SDS011;15243;50.726;7.080;2023-07-30T12:48:51;8.10;;;1.60;;
27899;SDS011;15243;50.726;7.080;2023-07-30T12:51:19;8.00;;;1.90;;
27899;SDS011;15243;50.726;7.080;2023-07-30T12:53:47;6.47;;;1.20;;
27899;SDS011;15243;50.726;7.080;2023-07-30T12:56:15;5.22;;;1.60;;
27899;SDS011;15243;50.726;7.080;2023-07-30T12:58:42;6.50;;;1.30;;
27899;SDS011;15243;50.726;7.080;2023-07-30T13:01:09;7.18;;;1.20;;
27899;SDS011;15243;50.726;7.080;2023-07-30T13:03:36;5.60;;;1.42;;
27899;SDS011;15243;50.726;7.080;2023-07-30T13:06:03;4.93;;;1.02;;
27899;SDS011;15243;50.726;7.080;2023-07-30T13:08:30;7.13;;;1.17;;
27899;SDS011;15243;50.726;7.080;2023-07-30T13:10:58;5.57;;;1.27;;
27899;SDS011;15243;50.726;7.080;2023-07-30T13:13:24;5.28;;;1.38;;
27899;SDS011;15243;50.726;7.080;2023-07-30T13:15:51;7.60;;;1.52;;
27899;SDS011;15243;50.726;7.080;2023-07-30T13:18:18;5.90;;;1.30;;
27899;SDS011;15243;50.726;7.080;2023-07-30T13:20:46;6.88;;;1.45;;
27899;SDS011;15243;50.726;7.080;2023-07-30T13:23:13;7.15;;;1.38;;
27899;SDS011;15243;50.726;7.080;2023-07-30T13:25:40;4.80;;;1.27;;
27899;SDS011;15243;50.726;7.080;2023-07-30T13:28:07;4.97;;;1.60;;
27899;SDS011;15243;50.726;7.080;2023-07-30T13:30:34;5.25;;;1.50;;
27899;SDS011;15243;50.726;7.080;2023-07-30T13:33:01;4.80;;;1.45;;
27899;SDS011;15243;50.726;7.080;2023-07-30T13:35:28;5.75;;;1.33;;
27899;SDS011;15243;50.726;7.080;2023-07-30T13:37:55;7.25;;;1.38;;
27899;SDS011;15243;50.726;7.080;2023-07-30T13:40:22;6.60;;;1.45;;
27899;SDS011;15243;50.726;7.080;2023-07-30T13:42:49;4.40;;;1.30;;
27899;SDS011;15243;50.726;7.080;2023-07-30T13:45:16;7.05;;;2.17;;
27899;SDS011;15243;50.726;7.080;2023-07-30T13:47:43;4.70;;;1.40;;
27899;SDS011;15243;50.726;7.080;2023-07-30T13:50:11;7.22;;;1.73;;
27899;SDS011;15243;50.726;7.080;2023-07-30T13:52:38;4.25;;;1.10;;
27899;SDS011;15243;50.726;7.080;2023-07-30T13:55:05;6.15;;;1.42;;
27899;SDS011;15243;50.726;7.080;2023-07-30T13:57:32;6.72;;;1.45;;
27899;SDS011;15243;50.726;7.080;2023-07-30T14:00:02;5.88;;;1.40;;
27899;SDS011;15243;50.726;7.080;2023-07-30T14:02:29;6.20;;;1.40;;
27899;SDS011;15243;50.726;7.080;2023-07-30T14:04:56;5.28;;;1.33;;
27899;SDS011;15243;50.726;7.080;2023-07-30T14:07:23;3.58;;;1.13;;
27899;SDS011;15243;50.726;7.080;2023-07-30T14:09:50;3.90;;;1.23;;
27899;SDS011;15243;50.726;7.080;2023-07-30T14:12:17;4.43;;;1.40;;
27899;SDS011;15243;50.726;7.080;2023-07-30T14:14:44;8.32;;;1.55;;
27899;SDS011;15243;50.726;7.080;2023-07-30T14:17:11;4.10;;;1.30;;
27899;SDS011;15243;50.726;7.080;2023-07-30T14:19:42;4.55;;;1.40;;
27899;SDS011;15243;50.726;7.080;2023-07-30T14:22:09;5.00;;;1.33;;
27899;SDS011;15243;50.726;7.080;2023-07-30T14:24:36;6.55;;;1.48;;
27899;SDS011;15243;50.726;7.080;2023-07-30T14:27:04;6.55;;;1.23;;
27899;SDS011;15243;50.726;7.080;2023-07-30T14:29:31;3.28;;;1.15;;
27899;SDS011;15243;50.726;7.080;2023-07-30T14:31:59;5.07;;;1.30;;
27899;SDS011;15243;50.726;7.080;2023-07-30T14:34:26;4.85;;;1.30;;
27899;SDS011;15243;50.726;7.080;2023-07-30T14:36:52;4.35;;;0.93;;
27899;SDS011;15243;50.726;7.080;2023-07-30T14:39:21;6.25;;;1.52;;
27899;SDS011;15243;50.726;7.080;2023-07-30T14:41:48;3.53;;;1.20;;
27899;SDS011;15243;50.726;7.080;2023-07-30T14:44:15;7.13;;;1.40;;
27899;SDS011;15243;50.726;7.080;2023-07-30T14:46:42;4.10;;;1.30;;
27899;SDS011;15243;50.726;7.080;2023-07-30T14:49:10;5.40;;;1.45;;
27899;SDS011;15243;50.726;7.080;2023-07-30T14:51:38;9.43;;;1.85;;
27899;SDS011;15243;50.726;7.080;2023-07-30T14:54:05;3.40;;;1.08;;
27899;SDS011;15243;50.726;7.080;2023-07-30T14:56:32;4.05;;;1.50;;
27899;SDS011;15243;50.726;7.080;2023-07-30T14:59:00;3.17;;;1.10;;
27899;SDS011;15243;50.726;7.080;2023-07-30T15:01:30;5.20;;;1.27;;
27899;SDS011;15243;50.726;7.080;2023-07-30T15:03:57;4.53;;;1.40;;
27899;SDS011;15243;50.726;7.080;2023-07-30T15:06:25;5.88;;;1.45;;